Cascade, ID (83611)

6:50 PM MDT on August 30, 2015 (GMT -0600)
Castle Mtn Creeks | | Change Station
CLOSE
Current Station
Personal Weather Station
Location: Garden Valley, ID
Elevation: 3850 ft
Nearby Weather Stations

Elev 3850 ft 44.16 °N, 116.01 °W | Updated 13 minutes ago

Mostly Cloudy
Mostly Cloudy
70.6 °F
Feels Like 76 °F
N
2.0
Wind Variable Wind from WSW
Gusts 5.0 mph

Today
High -- | Low -- °F
--% Chance of Precip.
Yesterday
High -- | Low -- °F
Precip. -- in
7:04 AM 8:24 PM
Full, 98% visible
Pressure 29.99 in
Visibility 10.0 miles
Clouds Mostly Cloudy 7000 ft
Overcast 12000 ft
Heat Index 76 °F
Dew Point 37 °F
Humidity 29%
Rainfall 0.02 in
Snow Depth Not available.
UV 0.5 out of 12
Pollen 6.90 out of 12
Air Quality Not available.
Flu Activity Not available.
METAR KMYL 302351Z AUTO 30011KT 10SM BKN070 OVC120 14/05 A3005 RMK AO2 WSHFT 2318 SLP155 T01390050 10183 20139 53004
Pressure 29.99 in
Visibility 10.0 miles
Clouds Mostly Cloudy 7000 ft
Overcast 12000 ft
Heat Index 76 °F
Dew Point 37 °F
Humidity 29%
Rainfall 0.02 in
Snow Depth Not available.
UV 0.5 out of 12
Pollen 6.90 out of 12
Air Quality Not available.
Flu Activity Not available.
METAR KMYL 302351Z AUTO 30011KT 10SM BKN070 OVC120 14/05 A3005 RMK AO2 WSHFT 2318 SLP155 T01390050 10183 20139 53004

10-Day Weather Forecast

×

Almanac

Astronomy

Aug. 30, 2015 Rise Set
Actual Time
Civil Twilight
Nautical Twilight
Astronomical Twilight
Moon
Length of Visible Light
Length of Day
Tomorrow will be .
, % of the Moon is Illuminated

Today's Extremes

State Highs State Lows

Community

WunderPhotos

Upload Photos

1,851,116 photos uploaded!

WunderBlogs® & News

Nearby

Air Quality

  Air Quality AQ Index Pollutant
Not available.

Snow Depth

Station Depth Elevation

Earthquake Activity

City Distance Mag. Time & Date
Minimum magnitude displayed is 2.5.

Coastal Water Temperatures

Place Temperature

Stations

Nearby Weather Stations

Station Location Temp. Windchill Dew Point Humidity Wind Precip. Elev Updated Type